Time;durP1;ratioP1;P1;durP2;ratioP2;P2;SDS_P1;SDS_P2;PMS_P1;PMS_P2;Temp;Humidity;BMP_temperature;BMP_pressure;BME280_temperature;BME280_humidity;BME280_pressure;Samples;Min_cycle;Max_cycle;Signal;HPM_P1;HPM_P2
2023/12/01 00:00:51;;;;;;;9.63;5.25;;;1.80;99.90;;;;;;4936406;29;20303;-83
2023/12/01 00:03:17;;;;;;;11.68;5.90;;;1.90;99.90;;;;;;4938100;29;20068;-83
2023/12/01 00:05:42;;;;;;;12.30;5.85;;;1.80;99.90;;;;;;4938854;29;20185;-83
2023/12/01 00:08:08;;;;;;;14.93;6.03;;;1.80;99.90;;;;;;4937477;29;20036;-83
2023/12/01 00:10:33;;;;;;;10.40;6.55;;;2.20;99.90;;;;;;4937078;29;20015;-83
2023/12/01 00:12:59;;;;;;;14.68;7.75;;;1.80;99.90;;;;;;4938363;29;20027;-83
2023/12/01 00:15:25;;;;;;;16.20;6.82;;;1.80;99.90;;;;;;4938456;29;20016;-83
2023/12/01 00:17:50;;;;;;;13.90;6.75;;;1.80;99.90;;;;;;4935172;29;20066;-83
2023/12/01 00:20:16;;;;;;;11.95;6.43;;;1.70;99.90;;;;;;4935947;29;20020;-83
2023/12/01 00:22:43;;;;;;;8.18;4.85;;;1.00;99.90;;;;;;4937957;29;20024;-83
2023/12/01 00:25:09;;;;;;;11.73;6.55;;;1.70;99.90;;;;;;4937628;29;20015;-83
2023/12/01 00:27:35;;;;;;;10.93;5.75;;;1.80;99.90;;;;;;4939957;29;20055;-83
2023/12/01 00:30:00;;;;;;;12.48;5.85;;;1.70;99.90;;;;;;4939836;29;20016;-83
2023/12/01 00:32:26;;;;;;;11.73;6.20;;;1.80;99.90;;;;;;4937067;29;20030;-83
2023/12/01 00:34:58;;;;;;;12.85;5.80;;;1.80;99.90;;;;;;4942589;29;20012;-84
2023/12/01 00:37:24;;;;;;;11.63;6.18;;;1.80;99.90;;;;;;4944695;29;20024;-84
2023/12/01 00:39:49;;;;;;;10.15;5.47;;;1.90;99.90;;;;;;4943953;29;20116;-84
2023/12/01 00:42:15;;;;;;;10.07;5.68;;;1.90;99.90;;;;;;4944066;29;20018;-84
2023/12/01 00:44:41;;;;;;;16.70;9.65;;;2.00;99.90;;;;;;4960338;28;20039;-84
2023/12/01 00:47:07;;;;;;;12.23;5.78;;;1.40;99.90;;;;;;4941243;29;20035;-84
2023/12/01 00:49:39;;;;;;;12.35;6.45;;;1.80;99.90;;;;;;4941552;29;20024;-85
2023/12/01 00:52:05;;;;;;;10.35;5.80;;;1.70;99.90;;;;;;4960741;28;20008;-85
2023/12/01 00:54:31;;;;;;;14.32;7.30;;;1.70;99.90;;;;;;4944289;28;20016;-85
2023/12/01 00:56:57;;;;;;;13.32;7.53;;;1.60;99.90;;;;;;4944570;29;20023;-85
2023/12/01 00:59:31;;;;;;;14.70;7.38;;;1.10;99.90;;;;;;4961229;28;20012;-85
2023/12/01 01:02:15;;;;;;;14.82;7.03;;;1.80;99.90;;;;;;4956284;28;20099;-85
2023/12/01 01:04:41;;;;;;;13.82;7.10;;;2.00;99.90;;;;;;4943647;29;20034;-85
2023/12/01 01:07:09;;;;;;;14.43;7.18;;;2.50;99.90;;;;;;4958304;29;20011;-83
2023/12/01 01:09:35;;;;;;;13.95;6.75;;;1.90;99.90;;;;;;4960491;28;20027;-84
2023/12/01 01:12:01;;;;;;;14.55;6.80;;;1.70;99.90;;;;;;4942549;29;20031;-85
2023/12/01 01:14:27;;;;;;;13.32;8.65;;;1.60;99.90;;;;;;4939129;29;20245;-87
2023/12/01 01:16:53;;;;;;;12.68;6.13;;;0.30;99.90;;;;;;4941424;29;20078;-84
2023/12/01 01:19:19;;;;;;;10.82;5.47;;;2.50;99.90;;;;;;4935251;29;20019;-92
2023/12/01 01:21:44;;;;;;;11.10;5.53;;;1.70;99.90;;;;;;4931081;29;20050;-90
2023/12/01 01:24:10;;;;;;;13.95;7.00;;;1.90;99.90;;;;;;4956362;29;20059;-85
2023/12/01 01:26:39;;;;;;;14.90;6.78;;;1.70;99.90;;;;;;4941687;29;20095;-84
2023/12/01 01:29:05;;;;;;;12.00;6.13;;;1.80;99.90;;;;;;4938259;29;20023;-84
2023/12/01 01:31:32;;;;;;;10.00;5.85;;;1.70;99.90;;;;;;4940479;29;20023;-86
2023/12/01 01:34:01;;;;;;;9.73;5.53;;;1.50;99.90;;;;;;4939650;29;20103;-84
2023/12/01 01:36:27;;;;;;;8.95;5.03;;;1.70;99.90;;;;;;4942542;29;20035;-84
2023/12/01 01:38:52;;;;;;;10.73;4.95;;;1.60;99.90;;;;;;4943269;29;20023;-84
2023/12/01 01:41:18;;;;;;;8.73;4.97;;;1.70;99.90;;;;;;4943473;29;20016;-84
2023/12/01 01:43:44;;;;;;;10.02;4.70;;;1.90;99.90;;;;;;4961539;28;20028;-85
2023/12/01 01:46:11;;;;;;;8.02;4.80;;;1.80;99.90;;;;;;4946197;29;20031;-84
2023/12/01 01:48:38;;;;;;;10.35;5.60;;;1.60;99.90;;;;;;4945822;29;20042;-84
2023/12/01 01:51:09;;;;;;;8.27;4.50;;;1.70;99.90;;;;;;4963017;29;20032;-85
2023/12/01 01:53:37;;;;;;;20.67;7.05;;;2.20;99.90;;;;;;4946718;29;20082;-85
2023/12/01 01:56:03;;;;;;;14.25;6.80;;;2.30;99.90;;;;;;4946698;29;20031;-85
2023/12/01 01:58:30;;;;;;;10.43;5.28;;;1.70;99.90;;;;;;4946502;29;20012;-84
2023/12/01 02:01:39;;;;;;;9.93;5.57;;;0.70;99.90;;;;;;4945336;29;20020;-85
2023/12/01 02:04:08;;;;;;;10.73;5.22;;;0.60;99.90;;;;;;4923675;29;20065;-93
2023/12/01 02:06:34;;;;;;;11.13;5.10;;;1.10;99.90;;;;;;4919521;29;20020;-85
2023/12/01 02:09:03;;;;;;;9.73;5.38;;;1.00;99.90;;;;;;4921665;29;20069;-86
2023/12/01 02:11:30;;;;;;;11.20;4.95;;;1.80;99.90;;;;;;4924973;29;20021;-86
2023/12/01 02:14:15;;;;;;;10.75;5.07;;;1.80;99.90;;;;;;4919037;29;20096;-85
2023/12/01 02:16:46;;;;;;;8.20;4.45;;;1.00;99.90;;;;;;4924587;29;20020;-85
2023/12/01 02:19:37;;;;;;;8.00;4.88;;;1.80;99.90;;;;;;4905396;29;20041;-87
2023/12/01 02:22:08;;;;;;;8.85;4.65;;;1.80;99.90;;;;;;4905535;29;20017;-85
2023/12/01 03:13:26;;;;;;;7.60;4.25;;;2.00;99.90;;;;;;4941857;28;20043;-85
2023/12/01 03:15:52;;;;;;;6.37;4.40;;;2.00;99.90;;;;;;4927052;29;20024;-85
2023/12/01 03:18:20;;;;;;;5.68;3.92;;;1.90;99.90;;;;;;4926936;28;20024;-85
2023/12/01 03:20:46;;;;;;;7.50;4.47;;;2.00;99.90;;;;;;4926931;29;20016;-85
2023/12/01 03:23:16;;;;;;;5.80;3.47;;;1.60;99.90;;;;;;4926664;28;20051;-85
2023/12/01 03:25:45;;;;;;;5.60;3.38;;;2.10;99.90;;;;;;5268165;23;20054;-85
2023/12/01 03:28:17;;;;;;;4.55;3.08;;;2.00;99.90;;;;;;4961943;28;20100;-85
2023/12/01 03:31:28;;;;;;;3.90;3.00;;;1.90;99.90;;;;;;4981096;28;20023;-85
2023/12/01 03:38:06;;;;;;;5.53;3.65;;;1.60;99.90;;;;;;4981746;28;20042;-85
2023/12/01 03:43:40;;;;;;;4.25;3.25;;;2.00;99.90;;;;;;4968672;28;20054;-85
2023/12/01 03:46:08;;;;;;;5.18;2.88;;;2.10;99.90;;;;;;4964271;28;20086;-85
2023/12/01 03:48:34;;;;;;;5.68;3.10;;;2.00;99.90;;;;;;4964303;28;20059;-85
2023/12/01 04:19:29;;;;;;;6.90;3.90;;;1.90;99.90;;;;;;5947157;23;20021;-84
2023/12/01 04:52:56;;;;;;;10.45;5.13;;;1.80;99.90;;;;;;4965289;28;20051;-83
2023/12/01 04:55:27;;;;;;;12.38;5.20;;;1.90;99.90;;;;;;4975679;28;20027;-83
2023/12/01 04:57:54;;;;;;;8.98;4.72;;;1.90;99.90;;;;;;4947710;28;20023;-81
2023/12/01 05:00:22;;;;;;;7.78;4.15;;;2.00;99.90;;;;;;4944196;29;20050;-81
2023/12/01 05:02:56;;;;;;;10.65;5.10;;;2.00;99.90;;;;;;4941129;29;20383;-82
2023/12/01 05:05:29;;;;;;;11.50;4.75;;;2.00;99.90;;;;;;4948878;29;20106;-81
2023/12/01 05:07:59;;;;;;;11.57;4.97;;;2.00;99.90;;;;;;4944189;29;20042;-82
2023/12/01 05:10:27;;;;;;;11.85;5.68;;;2.00;99.90;;;;;;4944613;29;20091;-80
2023/12/01 05:12:55;;;;;;;9.38;5.05;;;2.00;99.90;;;;;;4959269;28;20051;-81
2023/12/01 05:15:25;;;;;;;6.45;3.97;;;1.90;99.90;;;;;;4944429;28;20616;-81
2023/12/01 05:17:59;;;;;;;16.27;6.93;;;2.00;99.90;;;;;;4963318;28;20031;-83
2023/12/01 05:20:27;;;;;;;11.80;5.00;;;1.90;99.90;;;;;;4947925;29;20027;-81
2023/12/01 05:23:02;;;;;;;11.50;5.85;;;2.00;99.90;;;;;;4944254;28;20034;-81
2023/12/01 05:25:32;;;;;;;12.45;4.28;;;2.10;99.90;;;;;;4942702;29;20023;-81
2023/12/01 05:27:59;;;;;;;11.75;5.38;;;2.00;99.90;;;;;;4942152;29;20082;-80
2023/12/01 05:30:33;;;;;;;7.95;4.38;;;2.00;99.90;;;;;;4943526;28;20485;-81
2023/12/01 05:33:00;;;;;;;11.55;5.90;;;2.00;99.90;;;;;;4942619;28;20034;-81
2023/12/01 05:35:27;;;;;;;9.55;4.97;;;2.00;99.90;;;;;;4942776;28;20024;-81
2023/12/01 05:37:56;;;;;;;7.85;3.78;;;2.00;99.90;;;;;;4946175;28;20031;-81
2023/12/01 05:40:27;;;;;;;6.25;3.33;;;2.10;99.90;;;;;;4945510;29;20011;-80
2023/12/01 05:42:54;;;;;;;8.18;3.88;;;2.20;99.90;;;;;;4942423;28;20038;-81
2023/12/01 05:45:21;;;;;;;8.02;4.10;;;2.10;99.90;;;;;;4944285;29;20086;-81
2023/12/01 05:47:49;;;;;;;9.30;4.20;;;2.10;99.90;;;;;;4942644;29;20058;-80
2023/12/01 05:50:20;;;;;;;7.00;3.73;;;2.50;99.90;;;;;;4944092;29;20027;-82
2023/12/01 05:52:47;;;;;;;9.77;4.10;;;2.20;99.90;;;;;;4958558;28;20291;-79
2023/12/01 05:55:15;;;;;;;8.23;4.10;;;2.10;99.90;;;;;;4963728;28;20031;-80
2023/12/01 05:57:51;;;;;;;5.93;3.33;;;2.20;99.90;;;;;;4959482;28;20070;-80
2023/12/01 06:00:20;;;;;;;8.45;4.20;;;2.10;99.90;;;;;;4959627;28;20473;-80
2023/12/01 06:02:46;;;;;;;9.50;4.95;;;2.10;99.90;;;;;;4959353;28;20042;-79
2023/12/01 06:05:18;;;;;;;18.98;8.90;;;2.20;99.90;;;;;;4959528;28;20457;-80
2023/12/01 06:07:45;;;;;;;13.05;6.35;;;2.10;99.90;;;;;;4959467;28;20192;-80
2023/12/01 06:10:12;;;;;;;15.73;7.78;;;2.00;99.90;;;;;;4960564;28;20079;-81
2023/12/01 06:12:39;;;;;;;19.70;8.77;;;2.00;99.90;;;;;;4958966;28;20126;-81
2023/12/01 06:15:07;;;;;;;15.23;9.15;;;1.90;99.90;;;;;;4959512;28;20030;-81
2023/12/01 06:17:33;;;;;;;19.20;9.55;;;1.80;99.90;;;;;;4959328;28;20027;-81
2023/12/01 06:19:58;;;;;;;19.58;9.32;;;1.80;99.90;;;;;;4959334;28;20065;-80
2023/12/01 06:22:29;;;;;;;18.30;9.65;;;1.70;99.90;;;;;;4963950;28;20499;-80
2023/12/01 06:24:55;;;;;;;20.92;11.05;;;1.70;99.90;;;;;;4963705;28;20027;-81
2023/12/01 06:27:22;;;;;;;22.55;9.73;;;1.70;99.90;;;;;;4966500;28;20030;-80
2023/12/01 06:29:51;;;;;;;19.75;10.20;;;1.60;99.90;;;;;;4959396;28;20113;-79
2023/12/01 06:32:17;;;;;;;22.52;11.05;;;1.60;99.90;;;;;;4959103;28;20472;-80
2023/12/01 06:34:44;;;;;;;22.63;10.68;;;1.50;99.90;;;;;;4959278;28;20027;-80
2023/12/01 06:37:09;;;;;;;20.80;11.15;;;1.60;99.90;;;;;;4984217;28;20327;-80
2023/12/01 06:39:35;;;;;;;28.52;11.20;;;1.70;99.90;;;;;;4959818;28;20094;-80
2023/12/01 06:42:01;;;;;;;29.83;13.20;;;1.60;99.90;;;;;;4960289;28;20023;-80
2023/12/01 06:44:26;;;;;;;30.83;14.38;;;1.50;99.90;;;;;;4960037;28;20162;-81
2023/12/01 06:46:52;;;;;;;29.52;12.40;;;1.40;99.90;;;;;;4962172;28;20029;-80
2023/12/01 06:49:19;;;;;;;27.88;13.38;;;1.50;99.90;;;;;;4960771;28;20035;-80
2023/12/01 06:51:44;;;;;;;39.88;15.68;;;1.50;99.90;;;;;;4959975;28;20051;-81
2023/12/01 06:54:10;;;;;;;29.95;13.80;;;1.40;99.90;;;;;;4962055;28;20406;-80
2023/12/01 06:56:37;;;;;;;32.92;13.27;;;1.70;99.90;;;;;;4967953;28;20030;-81
2023/12/01 06:59:05;;;;;;;34.95;13.63;;;1.20;99.90;;;;;;4966669;28;20019;-80
2023/12/01 07:01:31;;;;;;;29.42;12.63;;;1.30;99.90;;;;;;4966734;28;20030;-80
2023/12/01 07:03:57;;;;;;;32.20;13.18;;;1.30;99.90;;;;;;4966812;28;20090;-81
2023/12/01 07:06:23;;;;;;;29.83;12.95;;;1.10;99.90;;;;;;4966734;28;20027;-81
2023/12/01 07:08:49;;;;;;;28.65;12.45;;;1.10;99.90;;;;;;4982767;28;20406;-80
2023/12/01 07:11:16;;;;;;;32.47;12.93;;;1.20;99.90;;;;;;4966585;28;20303;-81
2023/12/01 07:13:42;;;;;;;26.65;10.85;;;1.50;99.90;;;;;;4966207;28;20219;-80
2023/12/01 07:16:11;;;;;;;21.92;10.45;;;1.20;99.90;;;;;;4965051;28;20027;-81
2023/12/01 07:18:38;;;;;;;24.48;10.05;;;1.10;99.90;;;;;;4962200;28;20031;-81
2023/12/01 07:21:06;;;;;;;51.88;19.77;;;1.10;99.90;;;;;;4958771;28;20027;-81
2023/12/01 07:23:34;;;;;;;29.67;13.13;;;1.10;99.90;;;;;;4966018;28;20023;-80
2023/12/01 07:25:59;;;;;;;25.10;11.80;;;1.20;99.90;;;;;;4966422;28;20029;-80
2023/12/01 07:28:27;;;;;;;28.58;12.55;;;1.10;99.90;;;;;;4966417;28;20280;-81
2023/12/01 07:30:53;;;;;;;26.55;12.15;;;1.30;99.90;;;;;;4966252;28;20019;-81
2023/12/01 07:33:19;;;;;;;27.05;12.13;;;1.40;99.90;;;;;;4966219;28;20315;-81
2023/12/01 07:35:44;;;;;;;31.73;14.77;;;1.20;99.90;;;;;;4965952;28;20043;-81
2023/12/01 07:38:10;;;;;;;30.52;11.95;;;1.20;99.90;;;;;;4967206;28;20066;-80
2023/12/01 07:40:36;;;;;;;26.35;10.35;;;1.20;99.90;;;;;;4966111;28;20053;-80
2023/12/01 07:43:03;;;;;;;30.63;14.25;;;1.10;99.90;;;;;;4966992;28;20027;-80
2023/12/01 07:45:28;;;;;;;28.67;11.93;;;1.20;99.90;;;;;;4963390;28;20167;-75
2023/12/01 07:47:55;;;;;;;33.55;13.30;;;1.50;99.90;;;;;;4966154;28;20045;-80
2023/12/01 07:50:21;;;;;;;36.75;12.15;;;1.30;99.90;;;;;;4965676;28;20023;-81
2023/12/01 07:52:49;;;;;;;36.33;13.68;;;1.20;99.90;;;;;;4964401;28;20277;-80
2023/12/01 07:55:15;;;;;;;38.22;15.00;;;1.20;99.90;;;;;;4966054;28;20019;-80
2023/12/01 07:57:41;;;;;;;30.58;10.57;;;1.00;99.90;;;;;;4960596;28;20027;-80
2023/12/01 08:00:14;;;;;;;18.55;10.15;;;0.90;99.90;;;;;;4956393;28;20388;-81
2023/12/01 08:02:47;;;;;;;35.03;10.65;;;0.80;99.90;;;;;;4960411;28;20059;-82
2023/12/01 08:05:14;;;;;;;61.40;15.02;;;1.10;99.90;;;;;;4956109;28;20102;-81
2023/12/01 08:07:51;;;;;;;114.75;20.20;;;1.80;99.90;;;;;;4955788;28;20082;-81
2023/12/01 08:10:19;;;;;;;49.80;14.00;;;0.70;99.90;;;;;;4955308;28;20062;-80
2023/12/01 08:12:47;;;;;;;71.30;17.67;;;0.80;99.90;;;;;;4955216;28;20027;-80
2023/12/01 08:15:13;;;;;;;84.03;20.25;;;0.80;99.90;;;;;;4955391;28;20489;-80
2023/12/01 08:17:39;;;;;;;79.38;15.48;;;1.30;99.90;;;;;;4955215;28;20067;-80
2023/12/01 08:20:07;;;;;;;130.95;27.27;;;1.20;99.90;;;;;;4956357;28;20030;-80
2023/12/01 08:22:35;;;;;;;45.42;14.13;;;0.70;99.90;;;;;;4954975;28;20093;-80
2023/12/01 08:25:01;;;;;;;123.18;27.70;;;1.00;99.90;;;;;;4956403;28;20106;-80
2023/12/01 08:27:26;;;;;;;112.32;20.25;;;0.80;99.90;;;;;;4955530;28;20035;-80
2023/12/01 08:29:53;;;;;;;23.50;8.65;;;0.80;99.90;;;;;;4955832;28;20370;-83
2023/12/01 08:32:18;;;;;;;147.38;47.28;;;0.90;99.90;;;;;;4954512;28;20046;-80
2023/12/01 08:34:44;;;;;;;89.20;26.38;;;0.90;99.90;;;;;;4956218;28;20476;-80
2023/12/01 08:37:10;;;;;;;60.22;20.30;;;1.00;99.90;;;;;;4956489;28;20116;-79
2023/12/01 08:39:36;;;;;;;44.17;16.45;;;1.00;99.90;;;;;;4958209;28;20037;-80
2023/12/01 08:42:01;;;;;;;36.28;13.60;;;1.10;99.90;;;;;;4961898;28;20508;-80
2023/12/01 08:44:27;;;;;;;46.63;20.23;;;1.00;99.90;;;;;;4958445;28;20038;-80
2023/12/01 08:46:53;;;;;;;39.78;15.82;;;1.00;99.90;;;;;;4955437;28;20024;-79
2023/12/01 08:49:19;;;;;;;32.00;12.50;;;1.10;99.90;;;;;;4954507;28;20028;-79
2023/12/01 08:51:45;;;;;;;43.28;15.32;;;1.20;99.90;;;;;;4971006;28;20090;-79
2023/12/01 08:54:10;;;;;;;29.17;12.50;;;1.20;99.90;;;;;;4958346;28;20522;-79
2023/12/01 08:56:36;;;;;;;71.60;16.83;;;1.70;99.90;;;;;;4959561;28;20027;-79
2023/12/01 08:59:02;;;;;;;66.60;17.48;;;1.30;99.90;;;;;;4959533;28;20031;-79
2023/12/01 09:01:27;;;;;;;45.83;16.33;;;1.20;99.90;;;;;;4958399;28;20035;-79
2023/12/01 09:03:53;;;;;;;47.15;14.95;;;1.30;99.90;;;;;;4958210;28;20074;-79
2023/12/01 09:06:19;;;;;;;31.65;13.35;;;1.30;99.90;;;;;;4958228;28;20117;-79
2023/12/01 09:08:45;;;;;;;37.80;14.05;;;1.30;99.90;;;;;;4958221;28;20125;-79
2023/12/01 09:11:11;;;;;;;41.97;18.15;;;1.40;99.90;;;;;;4958409;28;20020;-79
2023/12/01 09:13:37;;;;;;;30.52;13.23;;;1.30;99.90;;;;;;4958139;28;20592;-79
2023/12/01 09:16:03;;;;;;;29.85;12.02;;;1.20;99.90;;;;;;4958248;28;20039;-79
2023/12/01 09:18:31;;;;;;;39.60;14.95;;;1.20;99.90;;;;;;4958062;28;20380;-79
2023/12/01 09:20:57;;;;;;;25.13;9.90;;;1.30;99.90;;;;;;4958084;28;20027;-80
2023/12/01 09:23:23;;;;;;;34.83;13.80;;;1.30;99.90;;;;;;4959176;28;20024;-79
2023/12/01 09:25:48;;;;;;;30.25;11.55;;;1.20;99.90;;;;;;4957740;28;20031;-79
2023/12/01 09:28:14;;;;;;;39.70;14.00;;;1.20;99.90;;;;;;4974196;28;20039;-79
2023/12/01 09:30:40;;;;;;;45.70;15.80;;;1.10;99.90;;;;;;4957977;28;20027;-79
2023/12/01 09:33:06;;;;;;;17.17;8.07;;;1.20;99.90;;;;;;4957705;28;20028;-79
2023/12/01 09:35:31;;;;;;;32.53;11.68;;;1.20;99.90;;;;;;4973589;28;20023;-79
2023/12/01 09:37:57;;;;;;;35.45;13.65;;;1.10;99.90;;;;;;4958565;28;20028;-78
2023/12/01 09:40:24;;;;;;;41.90;14.68;;;1.20;99.90;;;;;;4957352;28;20031;-79
2023/12/01 09:42:50;;;;;;;35.67;15.20;;;1.10;99.90;;;;;;4957350;28;20500;-79
2023/12/01 09:45:23;;;;;;;30.10;12.88;;;1.00;99.90;;;;;;4957264;28;20027;-79
2023/12/01 09:47:53;;;;;;;34.03;13.60;;;1.40;99.90;;;;;;4957176;28;20042;-79
2023/12/01 09:50:21;;;;;;;38.10;13.30;;;1.30;99.90;;;;;;4957133;28;20118;-79
2023/12/01 09:52:47;;;;;;;43.20;14.65;;;1.20;99.90;;;;;;4957039;28;20059;-78
2023/12/01 09:55:13;;;;;;;47.72;21.33;;;1.30;99.90;;;;;;4958421;28;20379;-78
2023/12/01 09:57:41;;;;;;;34.78;13.88;;;1.30;99.90;;;;;;4957138;28;20477;-78
2023/12/01 10:00:11;;;;;;;36.63;17.05;;;1.20;99.90;;;;;;4956928;28;20504;-78
2023/12/01 10:02:38;;;;;;;33.47;15.18;;;1.20;99.90;;;;;;4957889;28;20055;-78
2023/12/01 10:05:11;;;;;;;39.47;14.05;;;1.20;99.90;;;;;;4955999;29;20062;-78
2023/12/01 10:07:37;;;;;;;34.85;13.35;;;1.30;99.90;;;;;;4956697;28;20027;-78
2023/12/01 10:10:23;;;;;;;30.13;11.77;;;1.40;99.90;;;;;;4956678;28;20031;-78
2023/12/01 10:12:58;;;;;;;32.70;11.57;;;1.40;99.90;;;;;;4956628;28;20023;-78
2023/12/01 10:15:26;;;;;;;40.28;15.27;;;1.30;99.90;;;;;;4956607;28;20054;-78
2023/12/01 10:17:53;;;;;;;37.67;15.52;;;1.30;99.90;;;;;;4957570;28;20400;-78
2023/12/01 10:20:21;;;;;;;37.00;15.65;;;1.40;99.90;;;;;;4956579;28;20376;-77
2023/12/01 10:22:49;;;;;;;34.50;14.48;;;1.20;99.90;;;;;;4957757;28;20102;-78
2023/12/01 10:25:16;;;;;;;42.53;17.23;;;1.30;99.90;;;;;;4972734;28;20425;-78
2023/12/01 10:27:41;;;;;;;37.17;15.13;;;1.30;99.90;;;;;;4956333;28;20488;-79
2023/12/01 10:30:12;;;;;;;32.97;10.05;;;1.20;99.90;;;;;;4956318;28;20030;-78
2023/12/01 10:32:37;;;;;;;34.70;13.77;;;1.20;99.90;;;;;;4957509;28;20031;-78
2023/12/01 10:35:05;;;;;;;32.53;13.50;;;1.20;99.90;;;;;;4956484;28;20090;-78
2023/12/01 10:37:30;;;;;;;37.97;16.40;;;1.30;99.90;;;;;;4956058;28;20800;-78
2023/12/01 10:39:57;;;;;;;31.75;11.02;;;1.40;99.90;;;;;;4956234;28;20038;-79
2023/12/01 10:42:24;;;;;;;36.92;14.05;;;1.80;99.90;;;;;;4956365;28;20057;-79
2023/12/01 10:44:50;;;;;;;27.83;11.68;;;1.30;99.90;;;;;;4956171;28;20038;-78
2023/12/01 10:47:16;;;;;;;37.13;13.65;;;1.30;99.90;;;;;;4957543;28;20019;-78
2023/12/01 10:49:44;;;;;;;33.20;13.77;;;1.30;99.90;;;;;;4955983;28;20126;-78
2023/12/01 10:52:12;;;;;;;37.08;14.20;;;1.50;99.90;;;;;;4957300;28;20047;-78
2023/12/01 10:54:41;;;;;;;31.92;12.23;;;1.50;99.90;;;;;;4939941;29;20028;-78
2023/12/01 10:57:07;;;;;;;;;;;1.30;99.90;;;;;;4957535;28;20030;-78
2023/12/01 10:59:34;;;;;;;36.65;15.02;;;1.50;99.90;;;;;;4939845;28;19906;-78
2023/12/01 11:02:00;;;;;;;33.03;14.02;;;1.50;99.90;;;;;;4940002;28;20120;-78
2023/12/01 11:04:26;;;;;;;34.63;15.73;;;1.60;99.90;;;;;;4939807;29;20129;-78
2023/12/01 11:06:52;;;;;;;35.72;15.57;;;1.60;99.90;;;;;;4939677;28;20118;-77
2023/12/01 11:09:52;;;;;;;32.60;14.00;;;1.50;99.90;;;;;;4956991;28;20480;-78
2023/12/01 11:13:04;;;;;;;34.42;13.32;;;1.30;99.90;;;;;;4939515;29;20023;-78
2023/12/01 11:15:33;;;;;;;32.17;13.90;;;1.30;99.90;;;;;;4939142;29;20031;-78
2023/12/01 11:17:59;;;;;;;31.17;12.23;;;1.30;99.90;;;;;;4939574;29;20054;-78
2023/12/01 11:20:44;;;;;;;37.80;14.40;;;1.30;99.90;;;;;;4939586;29;20476;-78
2023/12/01 11:23:12;;;;;;;25.08;11.68;;;1.40;99.90;;;;;;4939589;29;20437;-78
2023/12/01 11:25:48;;;;;;;25.88;11.55;;;1.50;99.90;;;;;;4939470;28;20030;-78
2023/12/01 11:28:44;;;;;;;26.58;10.57;;;1.40;99.90;;;;;;4939127;29;20039;-78
2023/12/01 11:31:19;;;;;;;29.33;12.82;;;1.50;99.90;;;;;;4939297;29;20136;-78
2023/12/01 11:33:58;;;;;;;34.88;15.35;;;1.50;99.90;;;;;;4939283;28;20057;-78
2023/12/01 11:36:27;;;;;;;;;;;1.60;99.90;;;;;;4939676;29;20066;-78
2023/12/01 11:39:10;;;;;;;33.38;13.70;;;1.70;99.90;;;;;;4956494;28;20002;-78
2023/12/01 11:41:40;;;;;;;29.13;12.52;;;1.70;99.90;;;;;;4939139;29;20067;-78
2023/12/01 11:44:29;;;;;;;32.55;12.38;;;1.70;99.90;;;;;;4939044;29;20556;-78
2023/12/01 11:46:57;;;;;;;25.33;10.57;;;1.70;99.90;;;;;;4938700;29;20098;-78
2023/12/01 11:49:23;;;;;;;26.48;12.38;;;1.80;99.90;;;;;;4954954;28;20042;-78
2023/12/01 11:51:49;;;;;;;29.80;12.15;;;1.60;99.90;;;;;;4938628;29;20052;-79
2023/12/01 11:54:15;;;;;;;14.73;6.85;;;1.60;99.90;;;;;;4939071;28;20673;-79
2023/12/01 11:56:47;;;;;;;26.80;12.25;;;1.50;99.90;;;;;;4938985;28;20365;-81
2023/12/01 11:59:13;;;;;;;25.67;10.80;;;1.40;99.90;;;;;;4939314;28;20371;-78
2023/12/01 12:01:39;;;;;;;26.52;12.52;;;1.40;99.90;;;;;;4956300;28;20030;-77
2023/12/01 12:04:09;;;;;;;26.65;11.18;;;1.30;99.90;;;;;;4938588;28;20024;-79
2023/12/01 12:06:34;;;;;;;25.48;11.15;;;1.50;99.90;;;;;;4938533;28;20027;-78
2023/12/01 12:09:06;;;;;;;25.13;11.98;;;1.40;99.90;;;;;;4955980;28;20042;-79
2023/12/01 12:11:35;;;;;;;29.35;13.27;;;1.40;99.90;;;;;;4938724;28;20118;-79
2023/12/01 12:14:03;;;;;;;26.25;12.07;;;1.90;99.90;;;;;;4938706;29;20027;-79
2023/12/01 12:16:29;;;;;;;23.25;10.98;;;1.30;99.90;;;;;;4938609;28;20035;-78
2023/12/01 12:18:59;;;;;;;27.10;12.65;;;1.20;99.90;;;;;;4938869;29;20496;-78
2023/12/01 12:21:29;;;;;;;41.50;17.15;;;1.10;99.90;;;;;;4939181;29;20057;-79
2023/12/01 12:23:56;;;;;;;40.40;17.90;;;1.00;99.90;;;;;;4955941;28;20023;-79
2023/12/01 12:26:24;;;;;;;26.90;11.93;;;1.00;99.90;;;;;;4938036;29;20485;-79
2023/12/01 12:28:54;;;;;;;30.88;13.48;;;1.30;99.90;;;;;;4955749;28;20039;-80
2023/12/01 12:31:22;;;;;;;29.33;12.70;;;1.40;99.90;;;;;;4939036;28;20045;-80
2023/12/01 12:33:49;;;;;;;29.20;13.03;;;1.30;99.90;;;;;;4939184;28;20042;-80
2023/12/01 12:36:16;;;;;;;26.88;14.60;;;1.90;99.90;;;;;;4956388;28;20027;-80
2023/12/01 12:38:42;;;;;;;32.50;16.27;;;1.40;99.90;;;;;;4955624;28;20034;-80
2023/12/01 12:41:24;;;;;;;23.95;12.63;;;1.30;99.90;;;;;;4939130;29;20019;-80
2023/12/01 12:43:55;;;;;;;23.42;10.52;;;1.30;99.90;;;;;;4954688;28;20031;-80
2023/12/01 12:46:21;;;;;;;23.58;9.90;;;1.20;99.90;;;;;;4939062;29;20110;-80
2023/12/01 12:48:47;;;;;;;21.73;10.95;;;1.20;99.90;;;;;;4939021;28;20130;-81
2023/12/01 12:51:17;;;;;;;30.38;15.43;;;1.20;99.90;;;;;;4941385;28;20039;-80
2023/12/01 12:53:46;;;;;;;;;;;1.10;99.90;;;;;;4955171;29;20031;-80
2023/12/01 12:56:15;;;;;;;22.38;9.18;;;1.10;99.90;;;;;;4954648;28;19913;-81
2023/12/01 12:58:42;;;;;;;24.63;11.18;;;1.00;99.90;;;;;;4954972;28;20031;-81
2023/12/01 13:01:09;;;;;;;19.75;8.15;;;2.30;99.90;;;;;;4954777;28;20624;-81
2023/12/01 13:03:36;;;;;;;23.00;9.32;;;0.90;99.90;;;;;;4954945;28;20033;-82
2023/12/01 13:06:02;;;;;;;28.33;11.95;;;1.00;99.90;;;;;;4956100;28;20027;-81
2023/12/01 13:08:28;;;;;;;20.58;9.27;;;0.90;99.90;;;;;;4955263;28;20043;-82
2023/12/01 13:10:53;;;;;;;21.38;9.35;;;1.60;99.90;;;;;;4956006;28;20473;-82
2023/12/01 13:13:20;;;;;;;19.67;10.05;;;1.00;99.90;;;;;;4956091;28;20027;-82
2023/12/01 13:15:46;;;;;;;22.70;9.85;;;1.10;99.90;;;;;;4956851;28;20131;-82
2023/12/01 13:18:12;;;;;;;24.13;11.25;;;1.00;99.90;;;;;;4956286;28;20496;-81
2023/12/01 13:20:38;;;;;;;20.83;9.45;;;1.30;99.90;;;;;;4956722;28;20118;-82
2023/12/01 13:23:04;;;;;;;22.05;10.25;;;1.40;99.90;;;;;;4956222;28;20062;-82
2023/12/01 13:25:30;;;;;;;17.90;6.97;;;1.10;99.90;;;;;;4956127;28;20507;-81
2023/12/01 13:27:56;;;;;;;15.68;7.28;;;1.20;99.90;;;;;;4956405;28;20040;-81
2023/12/01 13:30:21;;;;;;;16.67;7.57;;;1.20;99.90;;;;;;4956152;28;20441;-81
2023/12/01 13:32:47;;;;;;;13.57;7.18;;;1.30;99.90;;;;;;4956088;28;20130;-81
2023/12/01 13:35:13;;;;;;;16.00;8.30;;;1.40;99.90;;;;;;4956062;28;20033;-81
2023/12/01 13:37:38;;;;;;;16.13;7.53;;;1.30;99.90;;;;;;4954675;28;20025;-81
2023/12/01 13:40:08;;;;;;;14.43;7.53;;;1.30;99.90;;;;;;4957928;28;20024;-80
2023/12/01 13:42:35;;;;;;;13.10;8.13;;;1.20;99.90;;;;;;4957896;28;20392;-80
2023/12/01 13:45:07;;;;;;;17.77;8.57;;;1.20;99.90;;;;;;4957631;28;20019;-80
2023/12/01 13:47:34;;;;;;;11.57;6.07;;;1.10;99.90;;;;;;4973629;28;20027;-80
2023/12/01 13:50:00;;;;;;;14.60;7.38;;;1.10;99.90;;;;;;4957502;28;20480;-80
2023/12/01 13:52:27;;;;;;;18.63;9.15;;;0.90;99.90;;;;;;4957328;28;20047;-80
2023/12/01 13:54:58;;;;;;;13.73;6.60;;;0.80;99.90;;;;;;4973518;28;20027;-80
2023/12/01 13:57:23;;;;;;;26.70;12.30;;;0.80;99.90;;;;;;4958527;28;20024;-79
2023/12/01 13:59:49;;;;;;;16.38;7.90;;;0.70;99.90;;;;;;4958234;28;20035;-79
2023/12/01 14:02:16;;;;;;;14.32;7.38;;;0.70;99.90;;;;;;4957380;28;20587;-79
2023/12/01 14:04:42;;;;;;;26.65;11.10;;;0.70;99.90;;;;;;4956972;28;20027;-79
2023/12/01 14:07:08;;;;;;;17.95;10.15;;;0.80;99.90;;;;;;4973143;28;20027;-79
2023/12/01 14:09:37;;;;;;;17.30;8.80;;;0.70;99.90;;;;;;4957071;28;20031;-79
2023/12/01 14:12:04;;;;;;;16.73;8.73;;;0.70;99.90;;;;;;4958020;28;20106;-79
2023/12/01 14:14:32;;;;;;;14.43;8.90;;;0.80;99.90;;;;;;4956854;28;20031;-79
2023/12/01 14:16:58;;;;;;;13.82;8.07;;;0.70;99.90;;;;;;4957442;28;20500;-78
2023/12/01 14:19:26;;;;;;;12.88;7.18;;;1.00;99.90;;;;;;4957348;28;20090;-78
2023/12/01 14:21:52;;;;;;;15.00;8.60;;;0.70;99.90;;;;;;4972999;28;20532;-76
2023/12/01 14:24:18;;;;;;;17.17;9.10;;;0.70;99.90;;;;;;4957985;28;20106;-77
2023/12/01 14:26:45;;;;;;;19.88;11.75;;;0.70;99.90;;;;;;4958375;28;20112;-78
2023/12/01 14:29:11;;;;;;;20.33;10.10;;;0.60;99.90;;;;;;4958258;28;20443;-77
2023/12/01 14:31:37;;;;;;;14.77;7.50;;;2.00;99.90;;;;;;4956909;28;20572;-78
2023/12/01 14:34:09;;;;;;;14.48;8.35;;;0.70;99.90;;;;;;4956631;28;20113;-78
2023/12/01 14:36:35;;;;;;;13.18;7.15;;;0.70;99.90;;;;;;4958215;28;20027;-78
2023/12/01 14:39:01;;;;;;;11.52;6.72;;;0.60;99.90;;;;;;4958080;28;20106;-77
2023/12/01 14:41:27;;;;;;;12.95;7.10;;;1.80;99.90;;;;;;4957984;28;20051;-77
2023/12/01 14:43:53;;;;;;;11.75;7.38;;;0.90;99.90;;;;;;4956862;28;20059;-77